createdAt,value
2023-02-22T00:02:25.411Z,7.14
2023-02-22T00:04:48.126Z,7.16
2023-02-22T00:07:10.675Z,7.23
2023-02-22T00:09:33.982Z,7.22
2023-02-22T00:11:58.806Z,7.33
2023-02-22T00:14:21.488Z,7.46
2023-02-22T00:16:44.118Z,7.49
2023-02-22T00:19:07.754Z,7.62
2023-02-22T00:21:31.225Z,7.63
2023-02-22T00:23:54.786Z,7.73
2023-02-22T00:26:20.724Z,7.84
2023-02-22T00:28:43.293Z,7.99
2023-02-22T00:31:06.851Z,8.14
2023-02-22T00:33:29.497Z,8.31
2023-02-22T00:35:52.248Z,8.48
2023-02-22T00:38:16.995Z,8.54
2023-02-22T00:40:40.250Z,8.62
2023-02-22T00:43:04.941Z,8.69
2023-02-22T00:45:29.626Z,8.70
2023-02-22T00:47:54.679Z,8.73
2023-02-22T00:50:18.447Z,8.73
2023-02-22T00:52:41.408Z,8.74
2023-02-22T00:55:07.755Z,8.81
2023-02-22T00:57:30.857Z,8.92
2023-02-22T00:59:53.827Z,8.83
2023-02-22T01:02:17.159Z,8.81
2023-02-22T01:04:40.023Z,8.97
2023-02-22T01:07:02.680Z,9.12
2023-02-22T01:09:27.025Z,9.18
2023-02-22T01:11:56.179Z,9.19
2023-02-22T01:14:21.159Z,9.18
2023-02-22T01:16:44.542Z,9.31
2023-02-22T01:19:07.210Z,9.31
2023-02-22T01:21:30.062Z,9.39
2023-02-22T01:23:52.675Z,9.36
2023-02-22T01:26:15.540Z,9.34
2023-02-22T01:28:39.398Z,9.31
2023-02-22T01:31:03.159Z,9.38
2023-02-22T01:33:25.879Z,9.31
2023-02-22T01:35:50.143Z,9.36
2023-02-22T01:38:14.293Z,9.28
2023-02-22T01:40:41.969Z,9.29
2023-02-22T01:43:21.246Z,9.25
2023-02-22T01:46:05.740Z,9.19
2023-02-22T01:48:50.498Z,9.14
2023-02-22T01:51:18.282Z,9.19
2023-02-22T01:54:06.351Z,9.21
2023-02-22T01:56:32.621Z,9.10
2023-02-22T01:59:03.545Z,9.27
2023-02-22T02:01:29.632Z,9.11
2023-02-22T02:03:58.228Z,9.01
2023-02-22T02:06:21.130Z,9.01
2023-02-22T02:09:21.926Z,8.92
2023-02-22T02:11:46.432Z,8.83
2023-02-22T02:14:10.500Z,8.74
2023-02-22T02:16:45.086Z,8.60
2023-02-22T02:19:16.023Z,8.54
2023-02-22T02:22:16.165Z,8.60
2023-02-22T02:25:01.007Z,8.59
2023-02-22T02:27:56.133Z,8.53
2023-02-22T02:31:18.489Z,8.52
2023-02-22T02:33:50.897Z,8.25
2023-02-22T02:36:20.989Z,8.15
2023-02-22T02:38:54.627Z,8.09
2023-02-22T02:41:35.513Z,8.11
2023-02-22T02:44:22.622Z,8.16
2023-02-22T02:47:12.046Z,8.21
2023-02-22T02:49:42.070Z,8.32
2023-02-22T02:52:06.270Z,8.48
2023-02-22T02:54:29.741Z,8.52
2023-02-22T02:56:52.595Z,8.57
2023-02-22T02:59:39.479Z,8.70
2023-02-22T03:02:20.694Z,8.80
2023-02-22T03:05:19.919Z,8.88
2023-02-22T03:07:48.217Z,8.81
2023-02-22T03:10:13.241Z,8.87
2023-02-22T03:12:48.925Z,8.83
2023-02-22T03:15:30.009Z,8.90
2023-02-22T03:18:23.899Z,9.00
2023-02-22T03:21:10.583Z,9.04
2023-02-22T03:23:41.933Z,8.97
2023-02-22T03:26:09.701Z,8.98
2023-02-22T03:28:40.131Z,8.94
2023-02-22T03:31:10.924Z,8.96
2023-02-22T03:34:00.958Z,8.85
2023-02-22T03:36:31.019Z,8.91
2023-02-22T03:38:55.753Z,8.87
2023-02-22T03:41:24.170Z,8.92
2023-02-22T03:43:50.477Z,8.81
2023-02-22T03:46:14.554Z,8.81
2023-02-22T03:48:46.747Z,8.77
2023-02-22T03:51:16.656Z,8.94
2023-02-22T03:53:44.714Z,8.96
2023-02-22T03:56:10.959Z,8.91
2023-02-22T03:58:36.604Z,8.94
2023-02-22T04:00:59.328Z,9.00
2023-02-22T04:03:23.150Z,8.96
2023-02-22T04:05:47.148Z,9.01
2023-02-22T04:08:09.932Z,9.04
2023-02-22T04:10:33.689Z,9.10
2023-02-22T04:12:56.649Z,9.11
2023-02-22T04:15:22.096Z,9.14
2023-02-22T04:17:46.642Z,9.19
2023-02-22T04:20:13.708Z,9.15
2023-02-22T04:22:44.232Z,9.05
2023-02-22T04:25:07.963Z,8.96
2023-02-22T04:27:31.175Z,8.87
2023-02-22T04:29:55.842Z,8.76
2023-02-22T04:32:18.833Z,8.77
2023-02-22T04:34:41.598Z,8.79
2023-02-22T04:37:04.188Z,8.83
2023-02-22T04:39:27.418Z,8.85
2023-02-22T04:41:50.221Z,8.74
2023-02-22T04:44:13.323Z,8.71
2023-02-22T04:46:36.684Z,8.59
2023-02-22T04:48:59.747Z,8.46
2023-02-22T04:51:26.107Z,8.49
2023-02-22T04:53:57.501Z,8.36
2023-02-22T04:56:21.076Z,8.33
2023-02-22T04:58:43.611Z,8.24
2023-02-22T05:01:06.605Z,8.16
2023-02-22T05:03:29.215Z,8.18
2023-02-22T05:05:52.607Z,8.11
2023-02-22T05:08:15.193Z,8.16
2023-02-22T05:10:37.843Z,8.35
2023-02-22T05:13:00.413Z,8.38
2023-02-22T05:15:25.420Z,8.41
2023-02-22T05:17:48.611Z,8.35
2023-02-22T05:20:38.423Z,8.24
2023-02-22T05:23:02.697Z,8.29
2023-02-22T05:25:26.310Z,8.26
2023-02-22T05:27:51.789Z,8.32
2023-02-22T05:30:16.558Z,8.29
2023-02-22T05:32:46.740Z,8.29
2023-02-22T05:35:09.867Z,8.32
2023-02-22T05:37:33.456Z,8.45
2023-02-22T05:40:01.435Z,8.43
2023-02-22T05:42:26.388Z,8.48
2023-02-22T05:44:49.011Z,8.49
2023-02-22T05:47:11.696Z,8.50
2023-02-22T05:49:34.935Z,8.57
2023-02-22T05:51:59.674Z,8.60
2023-02-22T05:54:22.606Z,8.79
2023-02-22T05:56:45.187Z,8.97
2023-02-22T05:59:09.351Z,9.22
2023-02-22T06:01:32.249Z,9.45
2023-02-22T06:03:54.964Z,9.67
2023-02-22T06:06:22.101Z,9.69
2023-02-22T06:08:45.183Z,9.62
2023-02-22T06:11:09.780Z,9.59
2023-02-22T06:13:33.050Z,9.53
2023-02-22T06:15:55.691Z,9.39
2023-02-22T06:18:18.478Z,9.32
2023-02-22T06:20:42.048Z,9.31
2023-02-22T06:23:04.836Z,9.38
2023-02-22T06:25:31.363Z,9.34
2023-02-22T06:27:54.239Z,9.36
2023-02-22T06:30:21.372Z,9.52
2023-02-22T06:32:44.288Z,9.45
2023-02-22T06:35:07.673Z,9.43
2023-02-22T06:37:30.561Z,9.48
2023-02-22T06:39:53.532Z,9.59
2023-02-22T06:42:16.575Z,9.50
2023-02-22T06:44:39.248Z,9.49
2023-02-22T06:47:02.234Z,9.48
2023-02-22T06:49:25.032Z,9.53
2023-02-22T06:51:48.147Z,9.55
2023-02-22T06:54:11.070Z,9.60
2023-02-22T06:56:36.805Z,9.62
2023-02-22T06:59:02.985Z,9.69
2023-02-22T07:01:26.384Z,9.79
2023-02-22T07:03:50.203Z,9.77
2023-02-22T07:06:13.036Z,9.87
2023-02-22T07:08:35.731Z,9.83
2023-02-22T07:10:58.515Z,9.97
2023-02-22T07:13:21.320Z,10.07
2023-02-22T07:15:44.040Z,10.17
2023-02-22T07:18:07.478Z,10.24
2023-02-22T07:20:31.778Z,10.21
2023-02-22T07:22:55.058Z,10.40
2023-02-22T07:25:19.447Z,10.56
2023-02-22T07:27:42.863Z,10.62
2023-02-22T07:30:07.452Z,10.72
2023-02-22T07:32:31.230Z,10.69
2023-02-22T07:34:54.594Z,10.79
2023-02-22T07:37:17.896Z,10.79
2023-02-22T07:39:43.792Z,11.10
2023-02-22T07:42:27.333Z,11.07
2023-02-22T07:44:50.783Z,11.13
2023-02-22T07:47:13.431Z,11.28
2023-02-22T07:49:37.050Z,11.48
2023-02-22T07:51:59.881Z,11.47
2023-02-22T07:54:22.602Z,11.75
2023-02-22T07:56:50.294Z,11.81
2023-02-22T07:59:14.327Z,11.93
2023-02-22T08:01:37.555Z,11.86
2023-02-22T08:04:00.774Z,12.20
2023-02-22T08:06:26.169Z,12.42
2023-02-22T08:08:49.009Z,12.34
2023-02-22T08:11:11.795Z,12.41
2023-02-22T08:13:34.829Z,12.36
2023-02-22T08:15:58.267Z,12.61
2023-02-22T08:18:22.136Z,12.82
2023-02-22T08:20:47.576Z,12.91
2023-02-22T08:23:12.273Z,13.10
2023-02-22T08:25:36.048Z,13.26
2023-02-22T08:28:10.736Z,13.27
2023-02-22T08:30:40.528Z,13.43
2023-02-22T08:33:05.426Z,13.42
2023-02-22T08:35:29.139Z,13.28
2023-02-22T08:37:54.768Z,13.47
2023-02-22T08:40:19.703Z,13.61
2023-02-22T08:42:42.646Z,13.82
2023-02-22T08:45:06.065Z,13.95
2023-02-22T08:47:28.847Z,13.95
2023-02-22T08:49:52.673Z,14.08
2023-02-22T08:52:17.176Z,14.29
2023-02-22T08:54:40.804Z,14.15
2023-02-22T08:57:03.762Z,14.30
2023-02-22T08:59:27.398Z,14.47
2023-02-22T09:01:51.423Z,14.50
2023-02-22T09:04:14.107Z,14.55
2023-02-22T09:06:36.976Z,14.56
2023-02-22T09:08:59.873Z,14.50
2023-02-22T09:11:22.945Z,14.78
2023-02-22T09:13:46.446Z,14.61
2023-02-22T09:16:09.246Z,14.80
2023-02-22T09:18:43.515Z,14.84
2023-02-22T09:21:06.920Z,14.97
2023-02-22T09:23:29.970Z,15.16
2023-02-22T09:25:53.130Z,15.22
2023-02-22T09:28:17.304Z,15.24
2023-02-22T09:30:40.843Z,15.04
2023-02-22T09:33:14.585Z,14.85
2023-02-22T09:35:42.624Z,14.77
2023-02-22T09:38:06.532Z,14.57
2023-02-22T09:40:32.448Z,14.61
2023-02-22T09:43:16.883Z,15.01
2023-02-22T09:45:59.092Z,14.85
2023-02-22T09:48:22.845Z,15.18
2023-02-22T09:50:54.414Z,15.39
2023-02-22T09:53:37.770Z,15.14
2023-02-22T09:56:06.871Z,15.16
2023-02-22T09:58:41.489Z,14.80
2023-02-22T10:01:16.209Z,14.97
2023-02-22T10:03:50.830Z,14.98
2023-02-22T10:06:19.659Z,15.19
2023-02-22T10:08:44.876Z,15.22
2023-02-22T10:11:35.042Z,15.19
2023-02-22T10:14:03.846Z,15.25
2023-02-22T10:16:40.869Z,15.32
2023-02-22T10:19:11.752Z,15.46
2023-02-22T10:21:36.989Z,15.43
2023-02-22T10:24:19.271Z,15.59
2023-02-22T10:26:44.669Z,15.84
2023-02-22T10:29:32.884Z,16.07
2023-02-22T10:32:02.114Z,15.94
2023-02-22T10:34:28.301Z,15.84
2023-02-22T10:36:57.385Z,15.86
2023-02-22T10:39:31.902Z,16.01
2023-02-22T10:41:57.837Z,15.97
2023-02-22T10:44:20.509Z,15.89
2023-02-22T10:46:44.740Z,15.96
2023-02-22T10:49:07.945Z,16.17
2023-02-22T10:51:30.881Z,16.19
2023-02-22T10:54:05.099Z,16.11
2023-02-22T10:56:28.579Z,16.15
2023-02-22T10:59:04.487Z,16.39
2023-02-22T11:01:37.801Z,16.56
2023-02-22T11:04:19.059Z,16.63
2023-02-22T11:06:45.089Z,16.86
2023-02-22T11:09:12.312Z,16.90
2023-02-22T11:11:35.148Z,16.75
2023-02-22T11:13:58.189Z,16.93
2023-02-22T11:16:26.442Z,17.15
2023-02-22T11:18:49.646Z,17.49
2023-02-22T11:21:14.065Z,17.66
2023-02-22T11:23:43.625Z,17.51
2023-02-22T11:26:11.565Z,17.31
2023-02-22T11:28:34.714Z,17.48
2023-02-22T11:31:08.735Z,17.71
2023-02-22T11:33:31.826Z,17.65
2023-02-22T11:36:00.144Z,17.44
2023-02-22T11:38:28.436Z,17.15
2023-02-22T11:41:06.143Z,17.25
2023-02-22T11:43:28.981Z,17.31
2023-02-22T11:46:02.768Z,17.17
2023-02-22T11:48:25.796Z,17.15
2023-02-22T11:51:29.996Z,17.03
2023-02-22T11:53:58.964Z,16.79
2023-02-22T11:56:40.638Z,16.81
2023-02-22T11:59:11.806Z,16.81
2023-02-22T12:01:34.921Z,16.83
2023-02-22T12:04:26.503Z,16.75
2023-02-22T12:07:17.556Z,16.52
2023-02-22T12:09:47.773Z,16.58
2023-02-22T12:12:19.376Z,16.86
2023-02-22T12:14:42.048Z,16.67
2023-02-22T12:17:10.588Z,16.67
2023-02-22T12:19:41.417Z,16.66
2023-02-22T12:22:12.368Z,16.69
2023-02-22T12:24:40.171Z,16.38
2023-02-22T12:27:37.218Z,16.07
2023-02-22T12:30:07.157Z,15.90
2023-02-22T12:32:41.322Z,16.25
2023-02-22T12:35:09.504Z,16.10
2023-02-22T12:37:58.541Z,15.90
2023-02-22T12:40:35.591Z,16.38
2023-02-22T12:43:28.780Z,16.45
2023-02-22T12:46:04.474Z,16.39
2023-02-22T12:48:38.750Z,16.45
2023-02-22T12:51:18.003Z,16.62
2023-02-22T12:53:46.623Z,16.55
2023-02-22T12:56:40.511Z,16.44
2023-02-22T12:59:09.016Z,16.45
2023-02-22T13:01:40.491Z,16.51
2023-02-22T13:04:19.358Z,16.46
2023-02-22T13:06:49.528Z,16.49
2023-02-22T13:09:15.084Z,16.01
2023-02-22T13:12:25.314Z,16.18
2023-02-22T13:15:01.163Z,16.24
2023-02-22T13:17:33.016Z,16.17
2023-02-22T13:20:11.615Z,15.91
2023-02-22T13:22:37.353Z,15.71
2023-02-22T13:25:09.807Z,16.01
2023-02-22T13:27:42.052Z,16.31
2023-02-22T13:30:10.040Z,16.31
2023-02-22T13:32:48.030Z,16.32
2023-02-22T13:35:22.813Z,16.35
2023-02-22T13:38:09.901Z,15.83
2023-02-22T13:40:44.954Z,16.00
2023-02-22T13:44:04.934Z,15.94
2023-02-22T13:46:36.804Z,16.14
2023-02-22T13:49:09.354Z,16.28
2023-02-22T13:51:38.239Z,16.11
2023-02-22T13:54:08.916Z,15.94
2023-02-22T13:56:32.168Z,15.97
2023-02-22T13:59:01.538Z,16.11
2023-02-22T14:01:41.154Z,16.01
2023-02-22T14:04:42.175Z,15.97
2023-02-22T14:07:29.985Z,15.86
2023-02-22T14:09:56.125Z,16.05
2023-02-22T14:12:31.006Z,15.94
2023-02-22T14:15:28.335Z,15.71
2023-02-22T14:18:02.028Z,15.74
2023-02-22T14:20:36.920Z,15.67
2023-02-22T14:23:32.629Z,15.49
2023-02-22T14:25:57.041Z,15.45
2023-02-22T14:28:41.405Z,15.39
2023-02-22T14:31:10.295Z,15.38
2023-02-22T14:34:02.087Z,15.19
2023-02-22T14:36:51.011Z,15.14
2023-02-22T14:39:32.289Z,15.05
2023-02-22T14:42:17.802Z,15.11
2023-02-22T14:44:43.435Z,15.15
2023-02-22T14:47:08.512Z,15.25
2023-02-22T14:49:36.136Z,15.22
2023-02-22T14:52:06.353Z,15.05
2023-02-22T14:54:39.840Z,14.98
2023-02-22T14:57:29.550Z,15.06
2023-02-22T15:00:19.818Z,15.05
2023-02-22T15:02:42.688Z,14.98
2023-02-22T15:05:05.576Z,14.98
2023-02-22T15:07:31.945Z,14.92
2023-02-22T15:10:31.172Z,14.74
2023-02-22T15:13:12.638Z,14.83
2023-02-22T15:15:44.575Z,14.80
2023-02-22T15:18:17.598Z,14.61
2023-02-22T15:20:40.930Z,14.70
2023-02-22T15:23:04.061Z,14.57
2023-02-22T15:25:30.744Z,14.40
2023-02-22T15:27:53.543Z,14.34
2023-02-22T15:30:23.837Z,14.34
2023-02-22T15:33:02.585Z,14.46
2023-02-22T15:35:29.071Z,14.46
2023-02-22T15:38:07.645Z,14.46
2023-02-22T15:40:33.401Z,14.44
2023-02-22T15:42:58.490Z,14.44
2023-02-22T15:45:25.240Z,14.37
2023-02-22T15:47:54.458Z,14.26
2023-02-22T15:50:26.739Z,14.26
2023-02-22T15:52:59.663Z,14.25
2023-02-22T15:55:26.026Z,14.25
2023-02-22T15:57:49.793Z,14.20
2023-02-22T16:00:22.384Z,14.12
2023-02-22T16:02:45.089Z,14.09
2023-02-22T16:05:13.258Z,14.02
2023-02-22T16:07:45.357Z,14.02
2023-02-22T16:10:09.394Z,14.02
2023-02-22T16:12:35.772Z,14.02
2023-02-22T16:14:59.683Z,14.04
2023-02-22T16:17:25.472Z,14.02
2023-02-22T16:19:50.571Z,13.97
2023-02-22T16:22:27.119Z,13.78
2023-02-22T16:24:52.322Z,13.42
2023-02-22T16:27:18.599Z,13.33
2023-02-22T16:29:42.034Z,13.39
2023-02-22T16:32:05.099Z,13.53
2023-02-22T16:34:28.039Z,13.30
2023-02-22T16:36:54.188Z,13.13
2023-02-22T16:39:27.308Z,13.24
2023-02-22T16:42:03.888Z,13.30
2023-02-22T16:44:27.343Z,13.47
2023-02-22T16:46:49.935Z,13.26
2023-02-22T16:49:13.795Z,13.42
2023-02-22T16:51:45.815Z,13.42
2023-02-22T16:54:12.734Z,13.37
2023-02-22T16:56:35.393Z,13.42
2023-02-22T16:59:02.999Z,13.40
2023-02-22T17:01:26.610Z,13.37
2023-02-22T17:03:50.878Z,13.10
2023-02-22T17:06:13.764Z,12.95
2023-02-22T17:08:40.805Z,12.88
2023-02-22T17:11:04.240Z,12.85
2023-02-22T17:13:28.082Z,12.74
2023-02-22T17:15:52.013Z,12.84
2023-02-22T17:18:16.966Z,12.98
2023-02-22T17:20:39.957Z,13.07
2023-02-22T17:23:05.158Z,13.07
2023-02-22T17:25:41.171Z,13.07
2023-02-22T17:28:04.691Z,13.06
2023-02-22T17:30:28.203Z,13.03
2023-02-22T17:32:52.010Z,13.06
2023-02-22T17:35:17.410Z,13.02
2023-02-22T17:37:40.547Z,12.99
2023-02-22T17:40:03.637Z,12.99
2023-02-22T17:42:26.711Z,12.99
2023-02-22T17:44:49.539Z,12.92
2023-02-22T17:47:13.320Z,12.91
2023-02-22T17:49:36.992Z,12.79
2023-02-22T17:51:59.719Z,12.82
2023-02-22T17:54:23.134Z,12.79
2023-02-22T17:56:45.920Z,12.82
2023-02-22T17:59:09.254Z,12.81
2023-02-22T18:01:33.773Z,12.58
2023-02-22T18:03:59.419Z,12.60
2023-02-22T18:06:25.318Z,12.60
2023-02-22T18:08:49.341Z,12.62
2023-02-22T18:11:12.538Z,12.60
2023-02-22T18:13:35.594Z,12.42
2023-02-22T18:16:00.166Z,12.36
2023-02-22T18:18:23.303Z,12.44
2023-02-22T18:20:51.417Z,12.41
2023-02-22T18:23:16.626Z,12.45
2023-02-22T18:25:40.327Z,12.37
2023-02-22T18:28:06.373Z,12.37
2023-02-22T18:30:31.167Z,12.33
2023-02-22T18:32:54.679Z,12.38
2023-02-22T18:35:17.540Z,12.24
2023-02-22T18:37:40.372Z,12.33
2023-02-22T18:40:04.539Z,12.29
2023-02-22T18:42:28.837Z,12.19
2023-02-22T18:44:54.868Z,12.19
2023-02-22T18:47:18.457Z,11.89
2023-02-22T18:49:42.339Z,11.82
2023-02-22T18:52:05.821Z,11.78
2023-02-22T18:54:29.013Z,11.87
2023-02-22T18:56:52.604Z,11.82
2023-02-22T18:59:15.230Z,11.85
2023-02-22T19:01:40.794Z,11.78
2023-02-22T19:04:09.901Z,11.76
2023-02-22T19:06:35.064Z,11.82
2023-02-22T19:09:01.399Z,11.81
2023-02-22T19:11:24.896Z,11.82
2023-02-22T19:13:50.742Z,11.71
2023-02-22T19:16:19.707Z,11.75
2023-02-22T19:18:44.235Z,11.83
2023-02-22T19:21:10.124Z,11.86
2023-02-22T19:23:34.963Z,11.66
2023-02-22T19:25:58.352Z,11.58
2023-02-22T19:28:28.063Z,11.24
2023-02-22T19:30:51.057Z,11.28
2023-02-22T19:33:14.225Z,11.11
2023-02-22T19:35:38.643Z,11.00
2023-02-22T19:38:01.274Z,10.86
2023-02-22T19:40:25.096Z,10.89
2023-02-22T19:42:49.632Z,10.97
2023-02-22T19:45:13.284Z,11.03
2023-02-22T19:47:36.200Z,10.89
2023-02-22T19:50:01.589Z,10.86
2023-02-22T19:52:24.886Z,10.70
2023-02-22T19:54:50.271Z,10.69
2023-02-22T19:57:13.470Z,10.58
2023-02-22T19:59:36.414Z,10.55
2023-02-22T20:01:59.438Z,10.56
2023-02-22T20:04:23.377Z,10.52
2023-02-22T20:06:50.640Z,10.49
2023-02-22T20:09:23.374Z,10.52
2023-02-22T20:11:47.411Z,10.44
2023-02-22T20:14:17.349Z,10.52
2023-02-22T20:16:40.277Z,10.46
2023-02-22T20:19:03.892Z,10.42
2023-02-22T20:21:33.403Z,10.32
2023-02-22T20:23:59.234Z,10.35
2023-02-22T20:26:24.152Z,10.22
2023-02-22T20:28:47.119Z,10.20
2023-02-22T20:31:13.775Z,10.24
2023-02-22T20:33:37.276Z,10.17
2023-02-22T20:36:04.797Z,10.00
2023-02-22T20:38:27.998Z,10.05
2023-02-22T20:40:50.996Z,10.05
2023-02-22T20:43:13.942Z,9.93
2023-02-22T20:45:39.042Z,9.90
2023-02-22T20:48:02.498Z,9.79
2023-02-22T20:50:26.091Z,9.94
2023-02-22T20:52:48.683Z,10.05
2023-02-22T20:55:11.829Z,10.10
2023-02-22T20:57:35.059Z,10.15
2023-02-22T20:59:59.127Z,9.97
2023-02-22T21:02:22.137Z,9.89
2023-02-22T21:04:45.024Z,9.79
2023-02-22T21:07:08.571Z,9.79
2023-02-22T21:09:33.397Z,9.95
2023-02-22T21:11:56.271Z,9.83
2023-02-22T21:14:20.168Z,9.87
2023-02-22T21:16:43.142Z,9.69
2023-02-22T21:19:07.706Z,9.66
2023-02-22T21:21:31.012Z,9.60
2023-02-22T21:23:55.855Z,9.60
2023-02-22T21:26:23.677Z,9.65
2023-02-22T21:28:53.626Z,9.66
2023-02-22T21:31:17.211Z,9.62
2023-02-22T21:33:40.987Z,9.52
2023-02-22T21:36:11.287Z,9.59
2023-02-22T21:38:34.087Z,9.52
2023-02-22T21:40:58.488Z,9.50
2023-02-22T21:43:21.487Z,9.46
2023-02-22T21:45:45.411Z,9.57
2023-02-22T21:48:08.276Z,9.56
2023-02-22T21:50:31.395Z,9.57
2023-02-22T21:52:54.395Z,9.46
2023-02-22T21:55:19.305Z,9.50
2023-02-22T21:57:42.561Z,9.39
2023-02-22T22:00:18.900Z,9.49
2023-02-22T22:02:42.120Z,9.50
2023-02-22T22:05:05.285Z,9.52
2023-02-22T22:07:29.761Z,9.43
2023-02-22T22:09:56.560Z,9.35
2023-02-22T22:12:19.681Z,9.29
2023-02-22T22:14:44.934Z,9.31
2023-02-22T22:17:09.482Z,9.28
2023-02-22T22:19:35.139Z,9.25
2023-02-22T22:21:58.348Z,9.11
2023-02-22T22:24:22.728Z,9.28
2023-02-22T22:26:45.416Z,9.31
2023-02-22T22:29:10.640Z,9.18
2023-02-22T22:31:33.385Z,9.03
2023-02-22T22:33:56.939Z,8.92
2023-02-22T22:36:21.453Z,8.91
2023-02-22T22:38:47.045Z,8.97
2023-02-22T22:41:13.326Z,9.05
2023-02-22T22:43:37.407Z,8.92
2023-02-22T22:46:02.809Z,8.96
2023-02-22T22:48:25.686Z,8.87
2023-02-22T22:51:06.626Z,8.83
2023-02-22T22:53:31.414Z,8.88
2023-02-22T22:55:54.129Z,8.97
2023-02-22T22:58:16.826Z,8.94
2023-02-22T23:00:41.138Z,8.94
2023-02-22T23:03:09.613Z,8.91
2023-02-22T23:05:39.822Z,8.91
2023-02-22T23:08:04.958Z,8.98
2023-02-22T23:10:27.653Z,9.01
2023-02-22T23:12:50.370Z,9.00
2023-02-22T23:15:13.852Z,8.97
2023-02-22T23:17:42.524Z,8.90
2023-02-22T23:20:11.299Z,8.96
2023-02-22T23:22:34.149Z,9.00
2023-02-22T23:24:59.872Z,9.00
2023-02-22T23:27:23.761Z,8.94
2023-02-22T23:29:47.028Z,8.84
2023-02-22T23:32:10.047Z,8.80
2023-02-22T23:34:33.185Z,8.83
2023-02-22T23:36:55.841Z,8.84
2023-02-22T23:39:22.763Z,8.85
2023-02-22T23:41:45.635Z,8.85
2023-02-22T23:44:11.281Z,8.88
2023-02-22T23:46:36.432Z,8.88
2023-02-22T23:49:01.736Z,8.91
2023-02-22T23:51:25.651Z,8.85
2023-02-22T23:54:31.366Z,8.87
2023-02-22T23:56:56.856Z,8.85
2023-02-22T23:59:19.673Z,8.70
